BZRK1: S Cottonwood River nr Bazarr KS

                                SHEF ID:       BZRK1     SF COTTONWOOD R NR BAZAAR, KS
STATION TYPE:

PRECIP PRECIP(A) STAGE RIV-FLOW BAT-LOAD
in in ft cfs volt
Ccp-Rev Ccp-Rev Ccp-Rev Ccp-Rev Ccp-Rev
(America/Chicago)
12/01 00:00 0.23 ---- 6.90 20 12.54
12/01 01:00 0.03 ---- 6.96 23 12.54
12/01 02:00 0.00 ---- 7.03 27 12.54
12/01 03:00 0.00 ---- 7.12 33 12.54
12/01 04:00 0.00 ---- 7.29 44 12.54
12/01 05:00 0.00 ---- 7.45 57 12.54
12/01 06:00 0.00 ---- 7.62 73 12.54
12/01 07:00 0.00 ---- 7.79 90 12.54
12/01 08:00 0.00 ---- 7.96 109 12.54
12/01 09:00 0.00 ---- 8.18 136 12.54
12/01 10:00 0.01 ---- 8.52 188 12.65
12/01 11:00 0.00 ---- 9.38 399 12.65
12/01 12:00 0.00 ---- 10.05 671 12.77
12/01 13:00 0.00 ---- 10.14 704 12.83
12/01 14:00 0.00 ---- 10.02 661 13.07
12/01 15:00 0.00 ---- 9.85 599 13.07
12/01 16:00 0.00 ---- 9.67 532 12.89
12/01 17:00 0.00 ---- 9.53 478 12.89
12/01 18:00 0.00 ---- 9.37 394 12.65
12/01 19:00 0.00 ---- 9.26 349 12.54
12/01 20:00 0.00 ---- 9.16 316 12.54
12/01 21:00 0.00 ---- 9.07 291 12.48
12/01 22:00 0.00 ---- 8.98 273 12.48
12/01 23:00 0.00 ---- 8.91 259 12.48
Data processed at Sat 02Dec2023 05:58 GMT

Parsing this webpage?

Checkout our new Data API! CWMSDataAPI (CDA)

All information presented herein is the property of the government of the United States of America and may be revised or deleted at any time without prior notice. Dissemination of this information without the expressed written consent of the Public Affairs Office, Tulsa District U.S. Army Corps of Engineers is strictly prohibited. These data are gathered electronically and, as presented, have NOT undergone any form of quality control. These data are NOT guaranteed to be valid or correct.